createdAt,value
2017-09-06T00:02:02.123Z,1.70
2017-09-06T00:04:29.654Z,1.53
2017-09-06T00:06:57.965Z,1.60
2017-09-06T00:09:28.158Z,1.43
2017-09-06T00:11:55.695Z,1.60
2017-09-06T00:14:23.254Z,2.47
2017-09-06T00:16:50.773Z,1.60
2017-09-06T00:19:18.327Z,1.90
2017-09-06T00:21:45.878Z,1.73
2017-09-06T00:24:13.425Z,1.97
2017-09-06T00:26:40.987Z,1.87
2017-09-06T00:29:08.546Z,1.50
2017-09-06T00:31:36.104Z,2.10
2017-09-06T00:34:04.163Z,2.00
2017-09-06T00:36:32.367Z,1.67
2017-09-06T00:38:59.904Z,1.60
2017-09-06T00:41:27.463Z,1.70
2017-09-06T00:43:55.026Z,1.53
2017-09-06T00:46:22.562Z,1.70
2017-09-06T00:48:50.113Z,1.60
2017-09-06T00:51:17.651Z,1.50
2017-09-06T00:53:45.195Z,1.40
2017-09-06T00:56:13.248Z,1.50
2017-09-06T00:58:40.768Z,1.43
2017-09-06T01:01:08.297Z,1.87
2017-09-06T01:03:35.815Z,1.80
2017-09-06T01:06:03.403Z,1.50
2017-09-06T01:08:30.949Z,1.70
2017-09-06T01:10:58.504Z,1.50
2017-09-06T01:13:26.042Z,1.50
2017-09-06T01:15:53.589Z,1.40
2017-09-06T01:18:21.156Z,1.57
2017-09-06T01:20:48.707Z,1.87
2017-09-06T01:23:16.245Z,1.33
2017-09-06T01:25:43.770Z,1.50
2017-09-06T01:28:11.321Z,1.23
2017-09-06T01:30:38.905Z,1.50
2017-09-06T01:33:06.449Z,1.70
2017-09-06T01:35:34.009Z,1.50
2017-09-06T01:38:01.544Z,1.70
2017-09-06T01:40:29.092Z,1.60
2017-09-06T01:42:56.608Z,1.53
2017-09-06T01:45:24.553Z,1.50
2017-09-06T01:47:53.723Z,1.97
2017-09-06T01:50:21.258Z,1.43
2017-09-06T01:52:48.822Z,1.50
2017-09-06T01:55:16.363Z,1.50
2017-09-06T01:57:43.901Z,1.40
2017-09-06T02:00:11.442Z,1.40
2017-09-06T02:02:38.996Z,1.73
2017-09-06T02:05:06.531Z,1.40
2017-09-06T02:07:34.067Z,1.33
2017-09-06T02:10:01.668Z,1.67
2017-09-06T02:12:29.226Z,1.50
2017-09-06T02:14:56.822Z,1.60
2017-09-06T02:17:24.388Z,1.50
2017-09-06T02:19:51.948Z,1.37
2017-09-06T02:22:19.526Z,1.40
2017-09-06T02:24:47.054Z,1.60
2017-09-06T02:27:14.622Z,1.33
2017-09-06T02:29:42.166Z,1.60
2017-09-06T02:32:09.704Z,1.70
2017-09-06T02:34:37.252Z,1.83
2017-09-06T02:37:05.653Z,1.27
2017-09-06T02:39:33.620Z,1.60
2017-09-06T02:42:01.501Z,1.80
2017-09-06T02:44:29.046Z,1.50
2017-09-06T02:46:56.849Z,1.53
2017-09-06T02:49:24.608Z,1.90
2017-09-06T02:51:52.252Z,2.00
2017-09-06T02:54:19.848Z,2.00
2017-09-06T02:56:47.398Z,2.00
2017-09-06T02:59:14.921Z,2.30
2017-09-06T03:01:42.442Z,2.10
2017-09-06T03:04:09.975Z,1.80
2017-09-06T03:06:38.297Z,1.60
2017-09-06T03:09:05.848Z,1.73
2017-09-06T03:11:33.386Z,2.00
2017-09-06T03:14:01.172Z,1.73
2017-09-06T03:16:28.693Z,1.73
2017-09-06T03:18:56.257Z,2.07
2017-09-06T03:21:25.504Z,2.27
2017-09-06T03:23:53.042Z,2.03
2017-09-06T03:26:20.657Z,1.80
2017-09-06T03:28:48.176Z,2.00
2017-09-06T03:31:15.707Z,2.07
2017-09-06T03:33:43.233Z,2.20
2017-09-06T03:36:10.765Z,2.17
2017-09-06T03:38:38.322Z,2.10
2017-09-06T03:41:05.850Z,1.63
2017-09-06T03:43:33.427Z,2.03
2017-09-06T03:46:00.933Z,1.90
2017-09-06T03:48:28.474Z,2.03
2017-09-06T03:50:55.987Z,2.37
2017-09-06T03:53:23.800Z,1.77
2017-09-06T03:55:51.342Z,2.07
2017-09-06T03:58:18.880Z,1.97
2017-09-06T04:00:46.441Z,1.93
2017-09-06T04:03:13.959Z,1.87
2017-09-06T04:05:41.508Z,1.60
2017-09-06T04:08:09.032Z,1.87
2017-09-06T04:10:36.999Z,1.83
2017-09-06T04:13:04.531Z,1.93
2017-09-06T04:15:32.050Z,2.30
2017-09-06T04:17:59.626Z,1.93
2017-09-06T04:20:27.139Z,2.20
2017-09-06T04:22:54.742Z,2.20
2017-09-06T04:25:22.302Z,2.63
2017-09-06T04:27:50.211Z,2.20
2017-09-06T04:30:17.752Z,2.07
2017-09-06T04:32:45.283Z,2.10
2017-09-06T04:35:12.838Z,2.00
2017-09-06T04:37:40.434Z,2.27
2017-09-06T04:40:08.007Z,2.27
2017-09-06T04:42:35.581Z,2.40
2017-09-06T04:45:03.558Z,2.20
2017-09-06T04:47:31.102Z,2.17
2017-09-06T04:49:58.633Z,2.07
2017-09-06T04:52:26.210Z,2.40
2017-09-06T04:54:55.217Z,2.10
2017-09-06T04:57:22.791Z,1.50
2017-09-06T04:59:50.341Z,2.40
2017-09-06T05:02:17.896Z,1.80
2017-09-06T05:04:45.457Z,2.27
2017-09-06T05:07:12.994Z,2.70
2017-09-06T05:09:40.552Z,2.43
2017-09-06T05:12:08.077Z,2.23
2017-09-06T05:14:36.415Z,2.10
2017-09-06T05:17:03.966Z,2.93
2017-09-06T05:19:31.491Z,3.13
2017-09-06T05:21:59.039Z,4.10
2017-09-06T05:24:26.571Z,3.03
2017-09-06T05:26:54.105Z,3.00
2017-09-06T05:29:21.653Z,3.00
2017-09-06T05:31:49.201Z,3.57
2017-09-06T05:34:17.197Z,2.80
2017-09-06T05:36:44.717Z,3.40
2017-09-06T05:39:12.251Z,2.97
2017-09-06T05:41:39.805Z,2.27
2017-09-06T05:44:07.337Z,2.53
2017-09-06T05:46:34.929Z,1.93
2017-09-06T05:49:02.449Z,1.80
2017-09-06T05:51:30.402Z,2.20
2017-09-06T05:53:57.927Z,1.93
2017-09-06T05:56:25.456Z,2.00
2017-09-06T05:58:53.011Z,1.40
2017-09-06T06:01:20.612Z,1.40
2017-09-06T06:03:49.510Z,1.13
2017-09-06T06:06:17.052Z,1.60
2017-09-06T06:08:44.901Z,1.17
2017-09-06T06:11:13.901Z,1.33
2017-09-06T06:13:41.449Z,1.30
2017-09-06T06:16:09.010Z,1.30
2017-09-06T06:18:36.564Z,1.37
2017-09-06T06:21:04.198Z,1.70
2017-09-06T06:23:31.746Z,1.70
2017-09-06T06:25:59.546Z,1.37
2017-09-06T06:28:27.090Z,1.67
2017-09-06T06:30:54.828Z,1.40
2017-09-06T06:33:23.603Z,1.50
2017-09-06T06:35:51.161Z,1.53
2017-09-06T06:38:19.003Z,1.50
2017-09-06T06:40:47.306Z,1.37
2017-09-06T06:43:15.907Z,1.70
2017-09-06T06:45:43.500Z,1.43
2017-09-06T06:48:11.059Z,1.33
2017-09-06T06:50:38.595Z,1.63
2017-09-06T06:53:06.130Z,1.30
2017-09-06T06:55:33.694Z,1.40
2017-09-06T06:58:01.286Z,1.53
2017-09-06T07:00:28.869Z,1.57
2017-09-06T07:02:56.426Z,1.10
2017-09-06T07:05:24.041Z,1.27
2017-09-06T07:07:51.601Z,1.40
2017-09-06T07:10:19.172Z,1.80
2017-09-06T07:12:47.014Z,1.37
2017-09-06T07:15:14.575Z,1.37
2017-09-06T07:17:42.167Z,1.60
2017-09-06T07:20:09.705Z,1.67
2017-09-06T07:22:37.240Z,1.70
2017-09-06T07:25:04.823Z,1.30
2017-09-06T07:27:32.393Z,1.80
2017-09-06T07:29:59.947Z,1.73
2017-09-06T07:32:27.486Z,1.20
2017-09-06T07:34:55.056Z,1.30
2017-09-06T07:37:22.620Z,2.27
2017-09-06T07:39:50.164Z,1.80
2017-09-06T07:42:17.725Z,1.50
2017-09-06T07:44:45.281Z,1.20
2017-09-06T07:47:13.099Z,1.30
2017-09-06T07:49:40.614Z,1.60
2017-09-06T07:52:08.245Z,1.10
2017-09-06T07:54:35.793Z,1.80
2017-09-06T07:57:03.372Z,1.80
2017-09-06T07:59:30.921Z,1.20
2017-09-06T08:01:58.459Z,1.40
2017-09-06T08:04:26.006Z,1.40
2017-09-06T08:06:59.282Z,1.20
2017-09-06T08:09:26.842Z,1.83
2017-09-06T08:11:54.617Z,1.50
2017-09-06T08:14:22.156Z,1.10
2017-09-06T08:16:49.723Z,1.67
2017-09-06T08:19:17.257Z,1.67
2017-09-06T08:21:44.828Z,1.10
2017-09-06T08:24:12.388Z,1.47
2017-09-06T08:26:39.940Z,1.50
2017-09-06T08:29:07.530Z,1.57
2017-09-06T08:31:35.064Z,1.10
2017-09-06T08:34:02.652Z,1.20
2017-09-06T08:36:30.197Z,1.40
2017-09-06T08:38:58.071Z,1.40
2017-09-06T08:41:25.645Z,1.40
2017-09-06T08:43:53.186Z,1.10
2017-09-06T08:46:20.804Z,1.40
2017-09-06T08:48:48.352Z,1.40
2017-09-06T08:51:16.805Z,1.40
2017-09-06T08:53:44.322Z,1.40
2017-09-06T08:56:11.891Z,1.20
2017-09-06T08:58:39.436Z,1.87
2017-09-06T09:01:06.977Z,1.20
2017-09-06T09:03:34.534Z,1.50
2017-09-06T09:06:02.063Z,1.20
2017-09-06T09:08:29.607Z,1.47
2017-09-06T09:10:57.214Z,2.30
2017-09-06T09:13:25.132Z,1.83
2017-09-06T09:15:52.670Z,1.57
2017-09-06T09:18:20.214Z,1.50
2017-09-06T09:20:47.778Z,1.80
2017-09-06T09:23:15.314Z,1.50
2017-09-06T09:25:42.874Z,1.83
2017-09-06T09:28:11.171Z,2.63
2017-09-06T09:30:38.997Z,2.60
2017-09-06T09:33:06.580Z,2.37
2017-09-06T09:35:34.114Z,2.77
2017-09-06T09:38:01.640Z,2.63
2017-09-06T09:40:29.172Z,2.40
2017-09-06T09:42:56.738Z,2.70
2017-09-06T09:45:25.192Z,2.40
2017-09-06T09:47:53.111Z,2.60
2017-09-06T09:50:20.659Z,2.70
2017-09-06T09:52:48.207Z,2.40
2017-09-06T09:55:15.792Z,2.17
2017-09-06T09:57:43.353Z,2.33
2017-09-06T10:00:10.970Z,2.30
2017-09-06T10:02:38.573Z,2.63
2017-09-06T10:05:06.435Z,2.33
2017-09-06T10:07:34.015Z,2.27
2017-09-06T10:10:01.556Z,2.93
2017-09-06T10:12:29.109Z,2.27
2017-09-06T10:14:56.722Z,1.90
2017-09-06T10:17:24.352Z,1.90
2017-09-06T10:19:52.006Z,2.60
2017-09-06T10:22:19.613Z,1.70
2017-09-06T10:24:47.277Z,2.33
2017-09-06T10:27:14.857Z,2.50
2017-09-06T10:29:42.447Z,2.80
2017-09-06T10:32:10.026Z,2.37
2017-09-06T10:34:38.361Z,2.70
2017-09-06T10:37:05.940Z,2.20
2017-09-06T10:39:33.832Z,2.33
2017-09-06T10:42:01.404Z,2.23
2017-09-06T10:44:28.965Z,2.40
2017-09-06T10:46:57.380Z,1.90
2017-09-06T10:49:25.008Z,2.50
2017-09-06T10:51:52.565Z,2.47
2017-09-06T10:54:20.113Z,2.00
2017-09-06T10:56:47.958Z,2.03
2017-09-06T10:59:15.512Z,2.00
2017-09-06T11:01:43.050Z,2.40
2017-09-06T11:04:10.790Z,2.13
2017-09-06T11:06:38.482Z,2.30
2017-09-06T11:09:06.144Z,1.73
2017-09-06T11:11:33.678Z,2.47
2017-09-06T11:14:01.723Z,2.23
2017-09-06T11:16:29.258Z,3.00
2017-09-06T11:18:56.798Z,2.00
2017-09-06T11:21:24.376Z,2.10
2017-09-06T11:23:51.953Z,1.67
2017-09-06T11:26:19.521Z,1.47
2017-09-06T11:28:47.077Z,1.90
2017-09-06T11:31:14.909Z,2.00
2017-09-06T11:33:42.419Z,1.90
2017-09-06T11:36:09.976Z,1.57
2017-09-06T11:38:37.546Z,1.90
2017-09-06T11:41:05.123Z,2.60
2017-09-06T11:43:32.674Z,1.60
2017-09-06T11:46:00.268Z,2.50
2017-09-06T11:48:28.147Z,2.43
2017-09-06T11:50:55.685Z,2.30
2017-09-06T11:53:23.246Z,2.60
2017-09-06T11:55:50.813Z,2.90
2017-09-06T11:58:18.354Z,2.83
2017-09-06T12:00:45.937Z,3.10
2017-09-06T12:03:13.514Z,3.10
2017-09-06T12:05:41.349Z,2.83
2017-09-06T12:08:08.913Z,2.60
2017-09-06T12:10:36.471Z,2.70
2017-09-06T12:13:04.037Z,2.70
2017-09-06T12:15:31.585Z,2.93
2017-09-06T12:17:59.152Z,3.40
2017-09-06T12:20:26.680Z,3.57
2017-09-06T12:22:54.624Z,3.23
2017-09-06T12:25:22.220Z,3.70
2017-09-06T12:27:49.778Z,3.67
2017-09-06T12:30:17.325Z,3.20
2017-09-06T12:32:44.883Z,3.57
2017-09-06T12:35:12.469Z,3.07
2017-09-06T12:37:40.017Z,3.50
2017-09-06T12:40:07.590Z,2.37
2017-09-06T12:42:35.144Z,3.07
2017-09-06T12:45:02.683Z,2.63
2017-09-06T12:47:30.220Z,2.70
2017-09-06T12:49:57.781Z,2.33
2017-09-06T12:52:26.090Z,2.63
2017-09-06T12:54:53.626Z,2.10
2017-09-06T12:57:21.165Z,2.20
2017-09-06T12:59:48.757Z,2.60
2017-09-06T13:02:16.311Z,2.47
2017-09-06T13:04:44.175Z,2.43
2017-09-06T13:07:11.761Z,3.00
2017-09-06T13:09:39.309Z,2.80
2017-09-06T13:12:06.902Z,2.90
2017-09-06T13:14:34.449Z,2.87
2017-09-06T13:17:02.346Z,3.10
2017-09-06T13:19:30.674Z,2.60
2017-09-06T13:21:58.235Z,2.57
2017-09-06T13:24:26.064Z,2.70
2017-09-06T13:26:53.644Z,2.50
2017-09-06T13:29:21.217Z,2.47
2017-09-06T13:31:48.787Z,2.90
2017-09-06T13:34:16.355Z,3.20
2017-09-06T13:36:43.970Z,2.17
2017-09-06T13:39:11.514Z,2.20
2017-09-06T13:41:39.135Z,2.77
2017-09-06T13:44:06.697Z,1.90
2017-09-06T13:46:34.298Z,2.00
2017-09-06T13:49:01.820Z,2.10
2017-09-06T13:51:29.659Z,2.07
2017-09-06T13:53:57.217Z,2.47
2017-09-06T13:56:24.780Z,2.13
2017-09-06T13:58:52.353Z,2.10
2017-09-06T14:01:19.921Z,2.00
2017-09-06T14:03:47.500Z,2.27
2017-09-06T14:06:15.073Z,2.40
2017-09-06T14:08:43.040Z,2.27
2017-09-06T14:11:10.598Z,2.10
2017-09-06T14:13:38.171Z,2.27
2017-09-06T14:16:05.715Z,2.53
2017-09-06T14:18:33.266Z,2.43
2017-09-06T14:21:00.795Z,1.80
2017-09-06T14:23:28.359Z,2.37
2017-09-06T14:25:55.887Z,1.80
2017-09-06T14:28:23.448Z,2.30
2017-09-06T14:30:51.005Z,2.90
2017-09-06T14:33:18.588Z,2.33
2017-09-06T14:35:46.129Z,2.80
2017-09-06T14:38:13.667Z,1.83
2017-09-06T14:40:41.218Z,2.33
2017-09-06T14:43:08.770Z,2.20
2017-09-06T14:45:36.698Z,2.60
2017-09-06T14:48:04.259Z,2.73
2017-09-06T14:50:31.819Z,2.00
2017-09-06T14:52:59.412Z,2.30
2017-09-06T14:55:27.013Z,1.77
2017-09-06T14:57:54.624Z,2.40
2017-09-06T15:00:22.378Z,1.93
2017-09-06T15:02:49.916Z,2.47
2017-09-06T15:05:17.499Z,2.50
2017-09-06T15:07:45.063Z,2.40
2017-09-06T15:10:12.663Z,2.60
2017-09-06T15:12:40.248Z,3.07
2017-09-06T15:15:07.839Z,1.93
2017-09-06T15:17:35.375Z,2.40
2017-09-06T15:20:02.934Z,2.00
2017-09-06T15:22:30.487Z,1.77
2017-09-06T15:24:58.049Z,2.00
2017-09-06T15:27:25.646Z,3.30
2017-09-06T15:29:53.220Z,2.80
2017-09-06T15:32:20.809Z,2.20
2017-09-06T15:34:48.363Z,2.33
2017-09-06T15:37:15.929Z,2.47
2017-09-06T15:39:43.478Z,1.97
2017-09-06T15:42:11.042Z,2.10
2017-09-06T15:44:38.640Z,3.20
2017-09-06T15:47:06.185Z,1.70
2017-09-06T15:49:33.769Z,2.20
2017-09-06T15:52:01.324Z,2.37
2017-09-06T15:54:28.880Z,1.90
2017-09-06T15:56:56.472Z,2.10
2017-09-06T15:59:24.027Z,2.37
2017-09-06T16:01:51.594Z,2.37
2017-09-06T16:04:19.896Z,2.03
2017-09-06T16:06:47.739Z,2.00
2017-09-06T16:09:15.289Z,2.10
2017-09-06T16:11:42.859Z,2.47
2017-09-06T16:14:10.433Z,2.20
2017-09-06T16:16:38.018Z,2.33
2017-09-06T16:19:05.583Z,2.37
2017-09-06T16:21:33.176Z,1.80
2017-09-06T16:24:00.717Z,2.40
2017-09-06T16:26:28.281Z,1.73
2017-09-06T16:28:55.844Z,2.63
2017-09-06T16:31:23.411Z,1.90
2017-09-06T16:33:50.959Z,1.87
2017-09-06T16:36:18.509Z,2.27
2017-09-06T16:38:46.090Z,1.83
2017-09-06T16:41:13.905Z,2.00
2017-09-06T16:43:41.492Z,2.00
2017-09-06T16:46:09.037Z,2.30
2017-09-06T16:48:36.665Z,2.20
2017-09-06T16:51:04.277Z,2.67
2017-09-06T16:53:31.831Z,1.50
2017-09-06T16:55:59.378Z,2.10
2017-09-06T16:58:27.366Z,1.70
2017-09-06T17:00:54.947Z,2.83
2017-09-06T17:03:23.183Z,2.10
2017-09-06T17:05:54.046Z,2.07
2017-09-06T17:08:21.616Z,2.17
2017-09-06T17:10:49.267Z,2.10
2017-09-06T17:13:16.840Z,2.70
2017-09-06T17:15:44.698Z,2.07
2017-09-06T17:18:12.645Z,2.60
2017-09-06T17:20:40.232Z,2.33
2017-09-06T17:23:07.798Z,1.90
2017-09-06T17:25:35.395Z,2.27
2017-09-06T17:28:02.948Z,2.33
2017-09-06T17:30:30.535Z,2.30
2017-09-06T17:32:58.108Z,2.53
2017-09-06T17:35:25.708Z,2.30
2017-09-06T17:37:53.325Z,2.77
2017-09-06T17:40:20.912Z,2.90
2017-09-06T17:42:48.495Z,3.07
2017-09-06T17:45:16.058Z,2.97
2017-09-06T17:47:43.679Z,2.90
2017-09-06T17:50:11.301Z,1.90
2017-09-06T17:52:38.941Z,2.73
2017-09-06T17:55:06.538Z,2.90
2017-09-06T17:57:34.320Z,3.03
2017-09-06T18:00:01.882Z,3.63
2017-09-06T18:02:29.750Z,2.60
2017-09-06T18:04:57.320Z,4.10
2017-09-06T18:07:24.874Z,2.70
2017-09-06T18:09:52.826Z,2.60
2017-09-06T18:12:20.399Z,3.23
2017-09-06T18:14:48.007Z,2.93
2017-09-06T18:17:15.545Z,2.83
2017-09-06T18:19:44.446Z,2.60
2017-09-06T18:22:12.016Z,2.93
2017-09-06T18:24:39.568Z,2.73
2017-09-06T18:27:07.135Z,3.30
2017-09-06T18:29:34.666Z,2.60
2017-09-06T18:32:02.254Z,2.57
2017-09-06T18:34:30.565Z,2.60
2017-09-06T18:36:58.148Z,2.10
2017-09-06T18:39:25.752Z,3.30
2017-09-06T18:41:53.279Z,2.57
2017-09-06T18:44:20.814Z,1.90
2017-09-06T18:46:48.358Z,1.90
2017-09-06T18:49:15.945Z,2.80
2017-09-06T18:51:44.276Z,3.00
2017-09-06T18:54:12.115Z,2.73
2017-09-06T18:56:39.669Z,2.30
2017-09-06T18:59:07.194Z,2.70
2017-09-06T19:01:34.783Z,2.60
2017-09-06T19:04:03.199Z,3.10
2017-09-06T19:06:30.776Z,3.17
2017-09-06T19:08:58.327Z,2.50
2017-09-06T19:11:25.914Z,3.10
2017-09-06T19:13:53.454Z,2.57
2017-09-06T19:16:20.995Z,2.90
2017-09-06T19:18:48.595Z,2.97
2017-09-06T19:21:16.228Z,4.00
2017-09-06T19:23:43.818Z,3.30
2017-09-06T19:26:11.368Z,3.60
2017-09-06T19:28:38.945Z,3.30
2017-09-06T19:31:06.547Z,3.73
2017-09-06T19:33:34.178Z,2.97
2017-09-06T19:36:01.771Z,2.97
2017-09-06T19:38:29.351Z,2.57
2017-09-06T19:40:57.190Z,3.30
2017-09-06T19:43:24.814Z,3.40
2017-09-06T19:45:52.403Z,3.70
2017-09-06T19:48:19.996Z,4.70
2017-09-06T19:50:47.579Z,3.77
2017-09-06T19:53:15.168Z,2.97
2017-09-06T19:55:43.535Z,2.80
2017-09-06T19:58:11.134Z,3.30
2017-09-06T20:00:38.675Z,3.40
2017-09-06T20:03:07.027Z,4.60
2017-09-06T20:05:34.594Z,3.20
2017-09-06T20:08:02.167Z,2.90
2017-09-06T20:10:29.749Z,3.30
2017-09-06T20:12:57.291Z,3.40
2017-09-06T20:15:24.850Z,3.30
2017-09-06T20:17:52.415Z,3.90
2017-09-06T20:20:20.736Z,4.17
2017-09-06T20:22:48.775Z,2.93
2017-09-06T20:25:16.370Z,3.53
2017-09-06T20:27:43.940Z,4.37
2017-09-06T20:30:11.504Z,4.00
2017-09-06T20:32:39.158Z,3.33
2017-09-06T20:35:07.026Z,3.43
2017-09-06T20:37:34.782Z,3.70
2017-09-06T20:40:02.316Z,3.77
2017-09-06T20:42:30.017Z,3.40
2017-09-06T20:44:57.584Z,2.70
2017-09-06T20:47:25.158Z,3.20
2017-09-06T20:49:52.724Z,2.97
2017-09-06T20:52:20.541Z,3.30
2017-09-06T20:54:48.127Z,3.70
2017-09-06T20:57:15.678Z,3.80
2017-09-06T20:59:43.214Z,4.17
2017-09-06T21:02:10.771Z,3.63
2017-09-06T21:04:38.341Z,4.03
2017-09-06T21:07:05.924Z,4.70
2017-09-06T21:09:34.675Z,4.33
2017-09-06T21:12:02.268Z,4.40
2017-09-06T21:14:29.837Z,3.50
2017-09-06T21:16:58.716Z,4.33
2017-09-06T21:19:26.309Z,2.90
2017-09-06T21:21:53.906Z,3.53
2017-09-06T21:24:21.478Z,3.87
2017-09-06T21:26:50.056Z,3.83
2017-09-06T21:29:17.613Z,3.30
2017-09-06T21:31:45.200Z,4.47
2017-09-06T21:34:12.798Z,3.33
2017-09-06T21:36:41.118Z,3.90
2017-09-06T21:39:08.671Z,3.27
2017-09-06T21:41:36.250Z,3.60
2017-09-06T21:44:04.138Z,3.53
2017-09-06T21:46:31.682Z,3.20
2017-09-06T21:48:59.704Z,3.10
2017-09-06T21:51:27.242Z,4.30
2017-09-06T21:53:54.793Z,4.47
2017-09-06T21:56:22.421Z,4.93
2017-09-06T21:58:49.991Z,3.80
2017-09-06T22:01:17.811Z,4.63
2017-09-06T22:03:45.378Z,5.73
2017-09-06T22:06:12.947Z,4.27
2017-09-06T22:08:40.518Z,4.27
2017-09-06T22:11:08.085Z,4.57
2017-09-06T22:13:35.635Z,3.67
2017-09-06T22:16:03.164Z,3.70
2017-09-06T22:18:30.988Z,4.00
2017-09-06T22:20:58.531Z,4.30
2017-09-06T22:23:26.067Z,5.13
2017-09-06T22:25:53.624Z,4.50
2017-09-06T22:28:22.920Z,3.43
2017-09-06T22:30:53.132Z,3.90
2017-09-06T22:33:20.690Z,3.57
2017-09-06T22:35:48.727Z,5.30
2017-09-06T22:38:16.262Z,4.30
2017-09-06T22:41:19.480Z,4.40
2017-09-06T22:43:47.034Z,4.57
2017-09-06T22:46:14.577Z,5.00
2017-09-06T22:48:42.156Z,4.30
2017-09-06T22:51:10.593Z,4.20
2017-09-06T22:53:38.959Z,5.07
2017-09-06T22:56:06.543Z,4.13
2017-09-06T22:58:34.082Z,5.00
2017-09-06T23:01:02.401Z,4.80
2017-09-06T23:03:29.938Z,4.30
2017-09-06T23:05:57.496Z,5.87
2017-09-06T23:08:25.028Z,4.07
2017-09-06T23:10:52.572Z,4.70
2017-09-06T23:13:20.139Z,4.50
2017-09-06T23:15:47.662Z,4.10
2017-09-06T23:18:15.212Z,7.47
2017-09-06T23:20:42.737Z,8.43
2017-09-06T23:23:10.285Z,7.73
2017-09-06T23:25:38.610Z,4.80
2017-09-06T23:28:06.244Z,5.23
2017-09-06T23:30:34.557Z,6.80
2017-09-06T23:33:02.102Z,5.23
2017-09-06T23:35:29.656Z,5.20
2017-09-06T23:37:57.207Z,4.03
2017-09-06T23:40:24.764Z,4.70
2017-09-06T23:42:52.302Z,5.07
2017-09-06T23:45:19.857Z,5.50
2017-09-06T23:47:47.414Z,6.07
2017-09-06T23:50:14.932Z,6.53
2017-09-06T23:52:42.769Z,5.10
2017-09-06T23:55:10.323Z,5.13
2017-09-06T23:57:37.922Z,4.60
